Time;durP1;ratioP1;P1;durP2;ratioP2;P2;SDS_P1;SDS_P2;PMS_P1;PMS_P2;Temp;Humidity;BMP_temperature;BMP_pressure;BME280_temperature;BME280_humidity;BME280_pressure;Samples;Min_cycle;Max_cycle;Signal;HPM_P1;HPM_P2
2024/03/06 00:01:23;;;;;;;;;;;;;;;;;;4945899;28;93939;-72
2024/03/06 00:03:48;;;;;;;;;;;;;;;;;;4946426;28;93431;-72
2024/03/06 00:06:14;;;;;;;;;;;;;;;;;;4931359;28;95274;-72
2024/03/06 00:08:39;;;;;;;;;;;;;;;;;;4927534;28;94803;-72
2024/03/06 00:11:04;;;;;;;;;;;;;;;;;;4927296;28;92281;-72
2024/03/06 00:13:29;;;;;;;;;;;;;;;;;;4930094;28;92536;-73
2024/03/06 00:15:54;;;;;;;;;;;;;;;;;;4927113;28;92861;-73
2024/03/06 00:18:20;;;;;;;;;;;;;;;;;;4927995;28;92481;-72
2024/03/06 00:20:45;;;;;;;;;;;;;;;;;;4934094;28;93220;-73
2024/03/06 00:23:10;;;;;;;;;;;;;;;;;;4946976;28;92256;-73
2024/03/06 00:25:36;;;;;;;;;;;;;;;;;;4946488;28;93838;-72
2024/03/06 00:28:01;;;;;;;;;;;;;;;;;;4947002;28;92811;-72
2024/03/06 00:30:26;;;;;;;;;;;;;;;;;;4947086;28;92907;-72
2024/03/06 00:32:51;;;;;;;;;;;;;;;;;;4945854;28;95234;-72
2024/03/06 00:35:17;;;;;;;;;;;;;;;;;;4949302;28;93356;-72
2024/03/06 00:37:42;;;;;;;;;;;;;;;;;;4946719;28;92683;-73
2024/03/06 00:40:07;;;;;;;;;;;;;;;;;;4945035;28;95137;-72
2024/03/06 00:42:33;;;;;;;;;;;;;;;;;;4947067;28;91520;-73
2024/03/06 00:44:58;;;;;;;;;;;;;;;;;;4946717;28;92595;-73
2024/03/06 00:47:23;;;;;;;;;;;;;;;;;;4946326;28;93418;-73
2024/03/06 00:49:48;;;;;;;;;;;;;;;;;;4945926;28;93191;-72
2024/03/06 00:52:14;;;;;;;;;;;;;;;;;;4945740;28;93346;-72
2024/03/06 00:54:39;;;;;;;;;;;;;;;;;;4946413;28;93303;-73
2024/03/06 00:57:04;;;;;;;;;;;;;;;;;;4949725;28;93189;-72
2024/03/06 00:59:29;;;;;;;;;;;;;;;;;;4945106;28;93000;-73
2024/03/06 01:01:57;;;;;;;;;;;;;;;;;;4945822;28;92556;-72
2024/03/06 01:04:23;;;;;;;;;;;;;;;;;;4945117;28;95186;-72
2024/03/06 01:06:48;;;;;;;;;;;;;;;;;;4946450;28;92181;-73
2024/03/06 01:09:13;;;;;;;;;;;;;;;;;;4946605;28;92206;-74
2024/03/06 01:11:39;;;;;;;;;;;;;;;;;;4944764;28;93790;-73
2024/03/06 01:14:04;;;;;;;;;;;;;;;;;;4945790;28;94569;-74
2024/03/06 01:16:29;;;;;;;;;;;;;;;;;;4944791;28;93474;-74
2024/03/06 01:18:55;;;;;;;;;;;;;;;;;;4949320;28;93708;-73
2024/03/06 01:21:20;;;;;;;;;;;;;;;;;;4946144;28;93485;-72
2024/03/06 01:23:46;;;;;;;;;;;;;;;;;;4945254;28;93080;-73
2024/03/06 01:26:11;;;;;;;;;;;;;;;;;;4945481;28;92935;-73
2024/03/06 01:28:37;;;;;;;;;;;;;;;;;;4945130;28;92202;-73
2024/03/06 01:31:02;;;;;;;;;;;;;;;;;;4945403;28;93042;-72
2024/03/06 01:33:27;;;;;;;;;;;;;;;;;;4945465;28;92961;-72
2024/03/06 01:35:52;;;;;;;;;;;;;;;;;;4946053;28;92529;-72
2024/03/06 01:38:17;;;;;;;;;;;;;;;;;;4947811;28;93230;-73
2024/03/06 01:40:43;;;;;;;;;;;;;;;;;;4946590;28;92514;-72
2024/03/06 01:43:17;;;;;;;;;;;;;;;;;;4945876;28;92364;-73
2024/03/06 01:45:42;;;;;;;;;;;;;;;;;;4944502;28;95866;-73
2024/03/06 01:48:08;;;;;;;;;;;;;;;;;;4945905;28;92391;-73
2024/03/06 01:50:33;;;;;;;;;;;;;;;;;;4945642;28;92640;-71
2024/03/06 01:52:59;;;;;;;;;;;;;;;;;;4945348;28;92967;-73
2024/03/06 01:55:24;;;;;;;;;;;;;;;;;;4945011;28;92901;-72
2024/03/06 01:57:50;;;;;;;;;;;;;;;;;;4945710;28;93023;-72
2024/03/06 02:00:16;;;;;;;;;;;;;;;;;;4948652;28;92693;-72
2024/03/06 02:02:42;;;;;;;;;;;;;;;;;;4945081;28;93622;-72
2024/03/06 02:05:08;;;;;;;;;;;;;;;;;;4943921;28;95747;-72
2024/03/06 02:07:33;;;;;;;;;;;;;;;;;;4943981;28;92256;-72
2024/03/06 02:09:59;;;;;;;;;;;;;;;;;;4944694;28;92748;-73
2024/03/06 02:12:24;;;;;;;;;;;;;;;;;;4944628;28;93672;-72
2024/03/06 02:14:49;;;;;;;;;;;;;;;;;;4945046;28;92588;-72
2024/03/06 02:17:14;;;;;;;;;;;;;;;;;;4945477;28;93323;-72
2024/03/06 02:19:41;;;;;;;;;;;;;;;;;;4945641;28;92103;-73
2024/03/06 02:22:07;;;;;;;;;;;;;;;;;;4948022;28;92917;-72
2024/03/06 02:24:32;;;;;;;;;;;;;;;;;;4944692;28;92908;-72
2024/03/06 02:26:57;;;;;;;;;;;;;;;;;;4944175;28;93376;-72
2024/03/06 02:29:25;;;;;;;;;;;;;;;;;;4944963;28;93369;-72
2024/03/06 02:31:50;;;;;;;;;;;;;;;;;;4943566;28;95638;-72
2024/03/06 02:34:16;;;;;;;;;;;;;;;;;;4945407;28;93286;-72
2024/03/06 02:36:41;;;;;;;;;;;;;;;;;;4945571;28;93537;-72
2024/03/06 02:39:08;;;;;;;;;;;;;;;;;;4943438;28;95367;-72
2024/03/06 02:41:34;;;;;;;;;;;;;;;;;;4944940;28;92151;-72
2024/03/06 02:43:59;;;;;;;;;;;;;;;;;;4947959;28;92337;-72
2024/03/06 02:46:24;;;;;;;;;;;;;;;;;;4943152;28;92375;-72
2024/03/06 02:48:50;;;;;;;;;;;;;;;;;;4944893;28;92778;-72
2024/03/06 02:51:19;;;;;;;;;;;;;;;;;;4944417;28;93611;-72
2024/03/06 02:53:45;;;;;;;;;;;;;;;;;;4932634;28;92689;-72
2024/03/06 02:56:15;;;;;;;;;;;;;;;;;;4935461;28;93848;-73
2024/03/06 02:58:40;;;;;;;;;;;;;;;;;;4944536;28;92833;-73
2024/03/06 03:01:05;;;;;;;;;;;;;;;;;;4943289;28;93115;-72
2024/03/06 03:03:31;;;;;;;;;;;;;;;;;;4944185;28;92958;-72
2024/03/06 03:05:56;;;;;;;;;;;;;;;;;;4947679;28;92836;-72
2024/03/06 03:08:22;;;;;;;;;;;;;;;;;;4944828;28;94051;-72
2024/03/06 03:10:47;;;;;;;;;;;;;;;;;;4943215;28;93121;-73
2024/03/06 03:13:13;;;;;;;;;;;;;;;;;;4959545;28;92206;-72
2024/03/06 03:15:38;;;;;;;;;;;;;;;;;;4943819;28;93214;-72
2024/03/06 03:18:03;;;;;;;;;;;;;;;;;;4944223;28;93144;-72
2024/03/06 03:20:28;;;;;;;;;;;;;;;;;;4944182;28;93235;-72
2024/03/06 03:22:54;;;;;;;;;;;;;;;;;;4945241;28;92721;-71
2024/03/06 03:25:21;;;;;;;;;;;;;;;;;;4946993;28;92536;-72
2024/03/06 03:27:47;;;;;;;;;;;;;;;;;;4965324;28;92372;-72
2024/03/06 03:30:12;;;;;;;;;;;;;;;;;;4947887;28;93885;-72
2024/03/06 03:32:37;;;;;;;;;;;;;;;;;;4947882;28;92388;-72
2024/03/06 03:35:04;;;;;;;;;;;;;;;;;;4947134;28;92199;-72
2024/03/06 03:37:29;;;;;;;;;;;;;;;;;;4947575;28;92634;-72
2024/03/06 03:39:54;;;;;;;;;;;;;;;;;;4946601;28;93874;-72
2024/03/06 03:42:20;;;;;;;;;;;;;;;;;;4947661;28;93005;-72
2024/03/06 03:44:45;;;;;;;;;;;;;;;;;;4946427;28;95340;-73
2024/03/06 03:47:10;;;;;;;;;;;;;;;;;;4965813;28;92787;-73
2024/03/06 03:49:36;;;;;;;;;;;;;;;;;;4945775;28;95887;-73
2024/03/06 03:52:01;;;;;;;;;;;;;;;;;;4947413;28;92545;-72
2024/03/06 03:54:26;;;;;;;;;;;;;;;;;;4947059;28;92809;-72
2024/03/06 03:56:51;;;;;;;;;;;;;;;;;;4947132;28;92185;-72
2024/03/06 03:59:17;;;;;;;;;;;;;;;;;;4947262;28;92595;-72
2024/03/06 04:01:44;;;;;;;;;;;;;;;;;;4945668;28;92818;-73
2024/03/06 04:04:09;;;;;;;;;;;;;;;;;;4946191;28;93865;-72
2024/03/06 04:06:34;;;;;;;;;;;;;;;;;;4947111;28;92942;-72
2024/03/06 04:09:00;;;;;;;;;;;;;;;;;;4949076;28;93055;-72
2024/03/06 04:11:25;;;;;;;;;;;;;;;;;;4946416;28;92659;-72
2024/03/06 04:13:50;;;;;;;;;;;;;;;;;;4946986;28;92934;-72
2024/03/06 04:16:17;;;;;;;;;;;;;;;;;;4937055;28;95723;-73
2024/03/06 04:18:42;;;;;;;;;;;;;;;;;;4936386;28;92607;-72
2024/03/06 04:21:10;;;;;;;;;;;;;;;;;;4935274;28;93546;-71
2024/03/06 04:23:36;;;;;;;;;;;;;;;;;;4935533;28;95710;-72
2024/03/06 04:26:02;;;;;;;;;;;;;;;;;;4927312;28;92354;-72
2024/03/06 04:28:27;;;;;;;;;;;;;;;;;;4936571;28;93673;-73
2024/03/06 04:30:52;;;;;;;;;;;;;;;;;;4938842;28;93734;-72
2024/03/06 04:33:18;;;;;;;;;;;;;;;;;;4936531;28;92988;-72
2024/03/06 04:35:43;;;;;;;;;;;;;;;;;;4928122;28;93461;-72
2024/03/06 04:38:08;;;;;;;;;;;;;;;;;;4937092;28;92278;-72
2024/03/06 04:40:36;;;;;;;;;;;;;;;;;;4932812;28;95564;-72
2024/03/06 04:43:01;;;;;;;;;;;;;;;;;;4936898;28;92366;-72
2024/03/06 04:45:28;;;;;;;;;;;;;;;;;;4944431;28;92140;-72
2024/03/06 04:47:53;;;;;;;;;;;;;;;;;;4934032;28;92803;-72
2024/03/06 04:50:18;;;;;;;;;;;;;;;;;;4934443;28;92134;-73
2024/03/06 04:52:44;;;;;;;;;;;;;;;;;;4935337;28;93519;-72
2024/03/06 04:55:10;;;;;;;;;;;;;;;;;;4936670;28;93871;-73
2024/03/06 04:57:36;;;;;;;;;;;;;;;;;;4935636;28;92529;-73
2024/03/06 05:00:08;;;;;;;;;;;;;;;;;;4924698;28;95142;-73
2024/03/06 05:02:36;;;;;;;;;;;;;;;;;;4933040;28;92854;-73
2024/03/06 05:05:02;;;;;;;;;;;;;;;;;;4932592;28;92603;-72
2024/03/06 05:07:28;;;;;;;;;;;;;;;;;;4937292;28;93902;-72
2024/03/06 05:09:53;;;;;;;;;;;;;;;;;;4937322;28;92062;-72
2024/03/06 05:12:18;;;;;;;;;;;;;;;;;;4928563;28;94393;-73
2024/03/06 05:14:44;;;;;;;;;;;;;;;;;;4939906;28;93146;-72
2024/03/06 05:17:10;;;;;;;;;;;;;;;;;;4927695;28;93411;-72
2024/03/06 05:19:37;;;;;;;;;;;;;;;;;;4936713;28;93396;-71
2024/03/06 05:22:02;;;;;;;;;;;;;;;;;;4933993;28;92943;-72
2024/03/06 05:24:27;;;;;;;;;;;;;;;;;;4935847;28;92597;-72
2024/03/06 05:26:53;;;;;;;;;;;;;;;;;;4928202;28;93352;-72
2024/03/06 05:29:18;;;;;;;;;;;;;;;;;;4936164;28;92967;-73
2024/03/06 05:31:43;;;;;;;;;;;;;;;;;;4934687;28;92821;-73
2024/03/06 05:34:09;;;;;;;;;;;;;;;;;;4933946;28;92754;-73
2024/03/06 05:36:34;;;;;;;;;;;;;;;;;;4930280;28;92961;-72
2024/03/06 05:38:59;;;;;;;;;;;;;;;;;;4934166;28;94216;-72
2024/03/06 05:41:25;;;;;;;;;;;;;;;;;;4930406;28;94050;-72
2024/03/06 05:43:50;;;;;;;;;;;;;;;;;;4931556;28;92910;-72
2024/03/06 05:46:15;;;;;;;;;;;;;;;;;;4937957;28;92698;-72
2024/03/06 05:48:41;;;;;;;;;;;;;;;;;;4932014;28;92729;-72
2024/03/06 05:51:06;;;;;;;;;;;;;;;;;;4930399;28;92603;-72
2024/03/06 05:53:35;;;;;;;;;;;;;;;;;;4933804;28;93727;-72
2024/03/06 05:56:00;;;;;;;;;;;;;;;;;;4934633;28;93791;-72
2024/03/06 05:58:25;;;;;;;;;;;;;;;;;;4933961;28;92644;-73
2024/03/06 06:00:51;;;;;;;;;;;;;;;;;;4938955;28;94862;-73
2024/03/06 06:03:17;;;;;;;;;;;;;;;;;;4935261;28;92431;-72
2024/03/06 06:05:42;;;;;;;;;;;;;;;;;;4926725;28;95052;-72
2024/03/06 06:08:07;;;;;;;;;;;;;;;;;;4931343;28;93003;-72
2024/03/06 06:10:33;;;;;;;;;;;;;;;;;;4931335;28;92630;-72
2024/03/06 06:12:58;;;;;;;;;;;;;;;;;;4933419;28;93284;-72
2024/03/06 06:15:23;;;;;;;;;;;;;;;;;;4936318;28;93161;-72
2024/03/06 06:17:48;;;;;;;;;;;;;;;;;;4934773;28;92313;-73
2024/03/06 06:20:14;;;;;;;;;;;;;;;;;;4933549;28;92952;-72
2024/03/06 06:22:40;;;;;;;;;;;;;;;;;;4929599;28;94533;-72
2024/03/06 06:25:07;;;;;;;;;;;;;;;;;;4935948;28;94480;-72
2024/03/06 06:27:33;;;;;;;;;;;;;;;;;;4939264;28;94507;-72
2024/03/06 06:29:58;;;;;;;;;;;;;;;;;;4931312;28;93633;-71
2024/03/06 06:32:23;;;;;;;;;;;;;;;;;;4932818;28;93331;-72
2024/03/06 06:34:48;;;;;;;;;;;;;;;;;;4931728;28;92923;-73
2024/03/06 06:37:14;;;;;;;;;;;;;;;;;;4929516;28;92712;-71
2024/03/06 06:39:40;;;;;;;;;;;;;;;;;;4931843;28;94361;-72
2024/03/06 06:42:05;;;;;;;;;;;;;;;;;;4930719;28;93065;-72
2024/03/06 06:44:31;;;;;;;;;;;;;;;;;;4926251;28;94398;-71
2024/03/06 06:46:56;;;;;;;;;;;;;;;;;;4934644;28;92100;-72
2024/03/06 06:49:22;;;;;;;;;;;;;;;;;;4932960;28;94208;-72
2024/03/06 06:51:49;;;;;;;;;;;;;;;;;;4934238;28;92615;-72
2024/03/06 06:54:15;;;;;;;;;;;;;;;;;;4936740;28;94668;-71
2024/03/06 06:56:41;;;;;;;;;;;;;;;;;;4936494;28;92818;-72
2024/03/06 06:59:06;;;;;;;;;;;;;;;;;;4932113;28;92850;-72
2024/03/06 07:01:32;;;;;;;;;;;;;;;;;;4946725;28;93267;-73
2024/03/06 07:03:58;;;;;;;;;;;;;;;;;;4939063;28;93620;-72
2024/03/06 07:06:23;;;;;;;;;;;;;;;;;;4938924;28;92942;-72
2024/03/06 07:08:48;;;;;;;;;;;;;;;;;;4940413;28;92992;-71
2024/03/06 07:11:14;;;;;;;;;;;;;;;;;;4934884;28;96586;-72
2024/03/06 07:13:39;;;;;;;;;;;;;;;;;;4933594;28;95258;-71
2024/03/06 07:16:04;;;;;;;;;;;;;;;;;;4938013;28;92554;-72
2024/03/06 07:18:30;;;;;;;;;;;;;;;;;;4936036;28;93994;-73
2024/03/06 07:20:55;;;;;;;;;;;;;;;;;;4940526;28;93302;-72
2024/03/06 07:23:20;;;;;;;;;;;;;;;;;;4943478;28;92486;-72
2024/03/06 07:25:45;;;;;;;;;;;;;;;;;;4935501;28;93351;-71
2024/03/06 07:28:11;;;;;;;;;;;;;;;;;;4937106;28;92862;-71
2024/03/06 07:30:36;;;;;;;;;;;;;;;;;;4938632;28;92691;-71
2024/03/06 07:33:01;;;;;;;;;;;;;;;;;;4939496;28;92870;-72
2024/03/06 07:35:26;;;;;;;;;;;;;;;;;;4936418;28;91815;-71
2024/03/06 07:37:51;;;;;;;;;;;;;;;;;;4940073;28;92885;-71
2024/03/06 07:40:17;;;;;;;;;;;;;;;;;;4941253;28;93681;-72
2024/03/06 07:42:42;;;;;;;;;;;;;;;;;;4948534;28;93131;-72
2024/03/06 07:45:08;;;;;;;;;;;;;;;;;;4939323;28;93954;-71
2024/03/06 07:47:34;;;;;;;;;;;;;;;;;;4933069;28;92344;-72
2024/03/06 07:49:59;;;;;;;;;;;;;;;;;;4938595;28;93843;-72
2024/03/06 07:52:24;;;;;;;;;;;;;;;;;;4932180;28;93627;-72
2024/03/06 07:54:49;;;;;;;;;;;;;;;;;;4937234;28;92765;-72
2024/03/06 07:57:15;;;;;;;;;;;;;;;;;;4932635;28;93027;-71
2024/03/06 07:59:40;;;;;;;;;;;;;;;;;;4933212;28;92155;-71
2024/03/06 08:02:06;;;;;;;;;;;;;;;;;;4932523;28;92282;-72
2024/03/06 08:04:31;;;;;;;;;;;;;;;;;;4935994;28;93840;-72
2024/03/06 08:06:56;;;;;;;;;;;;;;;;;;4932915;28;93178;-72
2024/03/06 08:09:23;;;;;;;;;;;;;;;;;;4940515;28;93767;-72
2024/03/06 08:11:49;;;;;;;;;;;;;;;;;;4940589;28;94285;-72
2024/03/06 08:14:14;;;;;;;;;;;;;;;;;;4942599;28;92649;-72
2024/03/06 08:16:40;;;;;;;;;;;;;;;;;;4942205;28;93101;-73
2024/03/06 08:19:05;;;;;;;;;;;;;;;;;;4941218;28;93451;-72
2024/03/06 08:21:30;;;;;;;;;;;;;;;;;;4936994;28;93179;-72
2024/03/06 08:23:56;;;;;;;;;;;;;;;;;;4941379;28;92638;-72
2024/03/06 08:26:22;;;;;;;;;;;;;;;;;;4942599;28;92950;-72
2024/03/06 08:28:48;;;;;;;;;;;;;;;;;;4937024;28;92792;-72
2024/03/06 08:31:14;;;;;;;;;;;;;;;;;;4930815;28;94955;-72
2024/03/06 08:33:39;;;;;;;;;;;;;;;;;;4938216;28;92693;-72
2024/03/06 08:36:04;;;;;;;;;;;;;;;;;;4938149;28;92665;-72
2024/03/06 08:38:30;;;;;;;;;;;;;;;;;;4934612;28;94473;-72
2024/03/06 08:40:55;;;;;;;;;;;;;;;;;;4935612;28;92763;-72
2024/03/06 08:43:20;;;;;;;;;;;;;;;;;;4936876;28;92496;-73
2024/03/06 08:45:45;;;;;;;;;;;;;;;;;;4937757;28;92909;-72
2024/03/06 08:48:11;;;;;;;;;;;;;;;;;;4938833;28;91580;-72
2024/03/06 08:50:36;;;;;;;;;;;;;;;;;;4934656;28;94218;-72
2024/03/06 08:53:02;;;;;;;;;;;;;;;;;;4940315;28;93010;-72
2024/03/06 08:55:28;;;;;;;;;;;;;;;;;;4939651;28;93157;-72
2024/03/06 08:57:53;;;;;;;;;;;;;;;;;;4935626;28;93067;-72
2024/03/06 09:00:19;;;;;;;;;;;;;;;;;;4936034;28;93541;-72
2024/03/06 09:02:44;;;;;;;;;;;;;;;;;;4933697;28;94458;-71
2024/03/06 09:05:12;;;;;;;;;;;;;;;;;;4941217;28;92858;-72
2024/03/06 09:07:38;;;;;;;;;;;;;;;;;;4935256;28;92240;-71
2024/03/06 09:10:06;;;;;;;;;;;;;;;;;;4939546;28;93139;-72
2024/03/06 09:12:32;;;;;;;;;;;;;;;;;;4934373;28;92086;-72
2024/03/06 09:14:57;;;;;;;;;;;;;;;;;;4930307;28;92251;-73
2024/03/06 09:17:22;;;;;;;;;;;;;;;;;;4936155;28;94062;-72
2024/03/06 09:19:47;;;;;;;;;;;;;;;;;;4935819;28;93732;-72
2024/03/06 09:22:13;;;;;;;;;;;;;;;;;;4936244;28;95933;-72
2024/03/06 09:24:38;;;;;;;;;;;;;;;;;;4935898;28;95376;-72
2024/03/06 09:27:04;;;;;;;;;;;;;;;;;;4935630;28;92380;-72
2024/03/06 09:29:29;;;;;;;;;;;;;;;;;;4935023;28;93295;-72
2024/03/06 09:31:54;;;;;;;;;;;;;;;;;;4933553;28;94424;-72
2024/03/06 09:34:21;;;;;;;;;;;;;;;;;;4937801;28;93453;-72
2024/03/06 09:36:47;;;;;;;;;;;;;;;;;;4940956;28;92082;-72
2024/03/06 09:39:16;;;;;;;;;;;;;;;;;;4936554;28;92529;-72
2024/03/06 09:41:41;;;;;;;;;;;;;;;;;;4935591;28;92645;-72
2024/03/06 09:44:07;;;;;;;;;;;;;;;;;;4934703;28;93754;-72
2024/03/06 09:46:34;;;;;;;;;;;;;;;;;;4929819;28;92197;-72
2024/03/06 09:48:59;;;;;;;;;;;;;;;;;;4936817;28;93360;-72
2024/03/06 09:51:25;;;;;;;;;;;;;;;;;;4935356;28;95936;-72
2024/03/06 09:53:51;;;;;;;;;;;;;;;;;;4932627;28;92742;-72
2024/03/06 09:56:18;;;;;;;;;;;;;;;;;;4937435;28;94924;-72
2024/03/06 09:58:43;;;;;;;;;;;;;;;;;;4935006;28;92487;-72
2024/03/06 10:01:11;;;;;;;;;;;;;;;;;;4940674;28;92652;-72
2024/03/06 10:03:37;;;;;;;;;;;;;;;;;;4938821;28;93046;-72
2024/03/06 10:06:02;;;;;;;;;;;;;;;;;;4939522;28;92299;-72
2024/03/06 10:08:27;;;;;;;;;;;;;;;;;;4938407;28;93217;-72
2024/03/06 10:10:53;;;;;;;;;;;;;;;;;;4936382;28;92868;-73
2024/03/06 10:13:18;;;;;;;;;;;;;;;;;;4957619;28;93106;-73
2024/03/06 10:16:00;;;;;;;;;;;;;;;;;;4935429;28;93515;-72
2024/03/06 10:18:26;;;;;;;;;;;;;;;;;;4935177;28;92594;-72
2024/03/06 10:20:53;;;;;;;;;;;;;;;;;;4934134;28;93487;-72
2024/03/06 10:23:18;;;;;;;;;;;;;;;;;;4933881;28;92865;-72
2024/03/06 10:25:44;;;;;;;;;;;;;;;;;;4936551;28;91605;-71
2024/03/06 10:28:10;;;;;;;;;;;;;;;;;;4935994;28;92873;-72
2024/03/06 10:30:37;;;;;;;;;;;;;;;;;;4933294;28;96096;-72
2024/03/06 10:33:03;;;;;;;;;;;;;;;;;;4924956;28;93877;-74
2024/03/06 10:35:29;;;;;;;;;;;;;;;;;;4943560;28;94448;-72
2024/03/06 10:37:54;;;;;;;;;;;;;;;;;;4936390;28;93345;-72
2024/03/06 10:40:20;;;;;;;;;;;;;;;;;;4941967;28;93253;-72
2024/03/06 10:42:46;;;;;;;;;;;;;;;;;;4937652;28;93163;-76
2024/03/06 10:45:13;;;;;;;;;;;;;;;;;;4926766;28;93218;-70
2024/03/06 10:47:39;;;;;;;;;;;;;;;;;;4931888;28;92730;-71
2024/03/06 10:50:09;;;;;;;;;;;;;;;;;;4933603;28;92315;-72
2024/03/06 10:52:35;;;;;;;;;;;;;;;;;;4935118;28;93381;-74
2024/03/06 10:55:01;;;;;;;;;;;;;;;;;;4936479;28;92775;-73
2024/03/06 10:57:29;;;;;;;;;;;;;;;;;;4939457;28;93861;-72
2024/03/06 10:59:55;;;;;;;;;;;;;;;;;;4935076;28;93892;-73
2024/03/06 11:02:23;;;;;;;;;;;;;;;;;;4926052;28;93015;-73
2024/03/06 11:04:48;;;;;;;;;;;;;;;;;;4941160;28;92254;-72
2024/03/06 11:07:14;;;;;;;;;;;;;;;;;;4935564;28;95936;-72
2024/03/06 11:09:39;;;;;;;;;;;;;;;;;;4936831;28;95419;-74
2024/03/06 11:12:08;;;;;;;;;;;;;;;;;;4929786;28;93185;-73
2024/03/06 11:14:36;;;;;;;;;;;;;;;;;;4942461;28;92709;-74
2024/03/06 11:17:07;;;;;;;;;;;;;;;;;;4929874;28;95289;-74
2024/03/06 11:19:52;;;;;;;;;;;;;;;;;;4938663;28;92528;-73
2024/03/06 11:22:18;;;;;;;;;;;;;;;;;;4932290;28;96313;-73
2024/03/06 11:24:43;;;;;;;;;;;;;;;;;;4938936;28;92535;-75
2024/03/06 11:27:10;;;;;;;;;;;;;;;;;;4941011;28;93057;-72
2024/03/06 11:29:54;;;;;;;;;;;;;;;;;;4937672;28;92868;-76
2024/03/06 11:32:19;;;;;;;;;;;;;;;;;;4939293;28;92735;-72
2024/03/06 11:34:44;;;;;;;;;;;;;;;;;;4944433;28;94594;-71
2024/03/06 11:37:10;;;;;;;;;;;;;;;;;;4938930;28;92957;-72
2024/03/06 11:39:36;;;;;;;;;;;;;;;;;;4930578;28;92068;-72
2024/03/06 11:42:02;;;;;;;;;;;;;;;;;;4939301;28;92680;-72
2024/03/06 11:44:29;;;;;;;;;;;;;;;;;;4928945;28;93000;-72
2024/03/06 11:46:54;;;;;;;;;;;;;;;;;;4934247;28;95158;-72
2024/03/06 11:49:20;;;;;;;;;;;;;;;;;;4938160;28;93849;-73
2024/03/06 11:51:47;;;;;;;;;;;;;;;;;;4935356;28;92972;-72
2024/03/06 11:54:12;;;;;;;;;;;;;;;;;;4938807;28;93102;-72
2024/03/06 11:56:41;;;;;;;;;;;;;;;;;;4936567;28;92885;-71
2024/03/06 11:59:09;;;;;;;;;;;;;;;;;;4937788;28;92259;-72
2024/03/06 12:01:36;;;;;;;;;;;;;;;;;;4929674;28;93005;-72
2024/03/06 12:04:02;;;;;;;;;;;;;;;;;;4936881;28;92022;-71
2024/03/06 12:06:27;;;;;;;;;;;;;;;;;;4935007;28;92832;-72
2024/03/06 12:08:55;;;;;;;;;;;;;;;;;;4940760;28;92874;-72
2024/03/06 12:11:21;;;;;;;;;;;;;;;;;;4939644;28;93213;-72
2024/03/06 12:13:48;;;;;;;;;;;;;;;;;;4942523;28;93285;-71
2024/03/06 12:16:13;;;;;;;;;;;;;;;;;;4938048;28;92978;-71
2024/03/06 12:18:38;;;;;;;;;;;;;;;;;;4933483;28;92334;-71
2024/03/06 12:21:04;;;;;;;;;;;;;;;;;;4936022;28;92866;-71
2024/03/06 12:23:29;;;;;;;;;;;;;;;;;;4941485;28;93441;-72
2024/03/06 12:26:05;;;;;;;;;;;;;;;;;;4942079;28;93484;-72
2024/03/06 12:28:30;;;;;;;;;;;;;;;;;;4941932;28;92196;-73
2024/03/06 12:30:56;;;;;;;;;;;;;;;;;;4940867;28;92264;-76
2024/03/06 12:33:23;;;;;;;;;;;;;;;;;;4941786;28;93457;-71
2024/03/06 12:35:59;;;;;;;;;;;;;;;;;;4939991;28;94413;-74
2024/03/06 12:38:28;;;;;;;;;;;;;;;;;;4940885;28;92938;-74
2024/03/06 12:40:54;;;;;;;;;;;;;;;;;;4941736;28;93842;-74
2024/03/06 12:43:19;;;;;;;;;;;;;;;;;;4938836;28;93650;-72
2024/03/06 12:45:44;;;;;;;;;;;;;;;;;;4942790;28;93369;-71
2024/03/06 12:48:09;;;;;;;;;;;;;;;;;;4939836;28;92845;-71
2024/03/06 12:50:34;;;;;;;;;;;;;;;;;;4935313;28;92885;-71
2024/03/06 12:53:00;;;;;;;;;;;;;;;;;;4936392;28;92860;-71
2024/03/06 12:55:25;;;;;;;;;;;;;;;;;;4940450;28;93109;-70
2024/03/06 12:57:51;;;;;;;;;;;;;;;;;;4937888;28;92726;-72
2024/03/06 13:00:16;;;;;;;;;;;;;;;;;;4935545;28;93660;-71
2024/03/06 13:02:45;;;;;;;;;;;;;;;;;;4942323;28;93237;-71
2024/03/06 13:05:10;;;;;;;;;;;;;;;;;;4936771;28;93433;-71
2024/03/06 13:07:36;;;;;;;;;;;;;;;;;;4943370;28;93975;-70
2024/03/06 13:10:01;;;;;;;;;;;;;;;;;;4932219;28;92617;-71
2024/03/06 13:12:26;;;;;;;;;;;;;;;;;;4935233;28;93260;-71
2024/03/06 13:14:52;;;;;;;;;;;;;;;;;;4942054;28;92799;-70
2024/03/06 13:17:18;;;;;;;;;;;;;;;;;;4935698;28;91789;-71
2024/03/06 13:19:43;;;;;;;;;;;;;;;;;;4933512;28;93138;-71
2024/03/06 13:22:08;;;;;;;;;;;;;;;;;;4932965;28;93101;-71
2024/03/06 13:24:33;;;;;;;;;;;;;;;;;;4929041;28;93263;-70
2024/03/06 13:26:59;;;;;;;;;;;;;;;;;;4933847;28;93308;-71
2024/03/06 13:29:24;;;;;;;;;;;;;;;;;;4938032;28;93215;-71
2024/03/06 13:31:50;;;;;;;;;;;;;;;;;;4941209;28;92604;-71
2024/03/06 13:34:16;;;;;;;;;;;;;;;;;;4941536;28;92921;-71
2024/03/06 13:36:41;;;;;;;;;;;;;;;;;;4938587;28;93190;-72
2024/03/06 13:39:06;;;;;;;;;;;;;;;;;;4940148;28;95227;-72
2024/03/06 13:41:31;;;;;;;;;;;;;;;;;;4934858;28;92391;-71
2024/03/06 13:43:57;;;;;;;;;;;;;;;;;;4933614;28;93451;-72
2024/03/06 13:46:22;;;;;;;;;;;;;;;;;;4933942;28;92607;-72
2024/03/06 13:48:47;;;;;;;;;;;;;;;;;;4936090;28;93843;-73
2024/03/06 13:51:12;;;;;;;;;;;;;;;;;;4936989;28;92235;-72
2024/03/06 13:53:37;;;;;;;;;;;;;;;;;;4936693;28;92870;-71
2024/03/06 13:56:03;;;;;;;;;;;;;;;;;;4938280;28;92668;-72
2024/03/06 13:58:28;;;;;;;;;;;;;;;;;;4932997;28;94037;-72
2024/03/06 14:00:53;;;;;;;;;;;;;;;;;;4932801;28;95206;-72
2024/03/06 14:03:18;;;;;;;;;;;;;;;;;;4935369;28;92753;-72
2024/03/06 14:05:44;;;;;;;;;;;;;;;;;;4938174;28;92742;-71
2024/03/06 14:08:11;;;;;;;;;;;;;;;;;;4935992;28;92979;-71
2024/03/06 14:10:39;;;;;;;;;;;;;;;;;;4938846;28;92875;-72
2024/03/06 14:13:04;;;;;;;;;;;;;;;;;;4933331;28;93989;-72
2024/03/06 14:15:30;;;;;;;;;;;;;;;;;;4930111;28;92640;-72
2024/03/06 14:17:55;;;;;;;;;;;;;;;;;;4936419;28;93206;-71
2024/03/06 14:20:21;;;;;;;;;;;;;;;;;;4938388;28;92746;-72
2024/03/06 14:22:47;;;;;;;;;;;;;;;;;;4934136;28;92922;-73
2024/03/06 14:25:12;;;;;;;;;;;;;;;;;;4933721;28;92207;-72
2024/03/06 14:27:38;;;;;;;;;;;;;;;;;;4935989;28;93713;-71
2024/03/06 14:30:04;;;;;;;;;;;;;;;;;;4933702;28;91861;-72
2024/03/06 14:32:29;;;;;;;;;;;;;;;;;;4936930;28;92710;-72
2024/03/06 14:34:55;;;;;;;;;;;;;;;;;;4940652;28;92661;-70
2024/03/06 14:37:20;;;;;;;;;;;;;;;;;;4936657;28;93770;-72
2024/03/06 14:39:45;;;;;;;;;;;;;;;;;;4938722;28;93994;-73
2024/03/06 14:42:11;;;;;;;;;;;;;;;;;;4938693;28;93105;-72
2024/03/06 14:44:36;;;;;;;;;;;;;;;;;;4939762;28;92742;-72
2024/03/06 14:47:02;;;;;;;;;;;;;;;;;;4941442;28;93041;-73
2024/03/06 14:49:27;;;;;;;;;;;;;;;;;;4941670;28;92460;-75
2024/03/06 14:51:53;;;;;;;;;;;;;;;;;;4939781;28;92593;-72
2024/03/06 14:54:18;;;;;;;;;;;;;;;;;;4945437;28;92409;-72
2024/03/06 14:56:43;;;;;;;;;;;;;;;;;;4941571;28;92513;-72
2024/03/06 14:59:09;;;;;;;;;;;;;;;;;;4937207;28;92974;-72
2024/03/06 15:01:36;;;;;;;;;;;;;;;;;;4938564;28;94748;-72
2024/03/06 15:04:02;;;;;;;;;;;;;;;;;;4937852;28;93924;-72
2024/03/06 15:06:27;;;;;;;;;;;;;;;;;;4941155;28;93184;-72
2024/03/06 15:08:52;;;;;;;;;;;;;;;;;;4939247;28;92297;-73
2024/03/06 15:11:18;;;;;;;;;;;;;;;;;;4942415;28;92933;-72
2024/03/06 15:13:45;;;;;;;;;;;;;;;;;;4940939;28;92956;-72
2024/03/06 15:16:10;;;;;;;;;;;;;;;;;;4940186;28;92755;-73
2024/03/06 15:18:35;;;;;;;;;;;;;;;;;;4936149;28;92465;-72
2024/03/06 15:21:00;;;;;;;;;;;;;;;;;;4935948;28;92576;-72
2024/03/06 15:23:26;;;;;;;;;;;;;;;;;;4937356;28;93106;-73
2024/03/06 15:25:51;;;;;;;;;;;;;;;;;;4938321;28;93731;-73
2024/03/06 15:28:16;;;;;;;;;;;;;;;;;;4925782;28;92315;-73
2024/03/06 15:30:42;;;;;;;;;;;;;;;;;;4934991;28;93058;-73
2024/03/06 15:33:07;;;;;;;;;;;;;;;;;;4936717;28;93322;-73
2024/03/06 15:35:33;;;;;;;;;;;;;;;;;;4932143;28;92419;-73
2024/03/06 15:37:58;;;;;;;;;;;;;;;;;;4934960;28;92862;-73
2024/03/06 15:40:24;;;;;;;;;;;;;;;;;;4935770;28;92323;-73
2024/03/06 15:42:50;;;;;;;;;;;;;;;;;;4932589;28;93943;-73
2024/03/06 15:45:15;;;;;;;;;;;;;;;;;;4923437;28;94986;-73
2024/03/06 15:47:43;;;;;;;;;;;;;;;;;;4931291;28;92775;-73
2024/03/06 15:50:10;;;;;;;;;;;;;;;;;;4930736;28;93536;-72
2024/03/06 15:52:35;;;;;;;;;;;;;;;;;;4939818;28;93414;-73
2024/03/06 15:55:01;;;;;;;;;;;;;;;;;;4933872;28;92593;-73
2024/03/06 15:57:26;;;;;;;;;;;;;;;;;;4936236;28;93207;-73
2024/03/06 15:59:52;;;;;;;;;;;;;;;;;;4932459;28;92965;-73
2024/03/06 16:02:18;;;;;;;;;;;;;;;;;;4932190;28;92699;-73
2024/03/06 16:04:43;;;;;;;;;;;;;;;;;;4929633;28;93667;-73
2024/03/06 16:07:09;;;;;;;;;;;;;;;;;;4930782;28;92348;-73
2024/03/06 16:09:34;;;;;;;;;;;;;;;;;;4933994;28;92273;-73
2024/03/06 16:12:00;;;;;;;;;;;;;;;;;;4933376;28;93335;-73
2024/03/06 16:14:25;;;;;;;;;;;;;;;;;;4932021;28;93471;-73
2024/03/06 16:16:50;;;;;;;;;;;;;;;;;;4931883;28;95884;-73
2024/03/06 16:19:16;;;;;;;;;;;;;;;;;;4929051;28;93097;-73
2024/03/06 16:21:41;;;;;;;;;;;;;;;;;;4931664;28;92542;-73
2024/03/06 16:24:08;;;;;;;;;;;;;;;;;;4932503;28;92982;-73
2024/03/06 16:26:33;;;;;;;;;;;;;;;;;;4932915;28;92207;-73
2024/03/06 16:29:01;;;;;;;;;;;;;;;;;;4925445;28;92754;-73
2024/03/06 16:31:26;;;;;;;;;;;;;;;;;;4935713;28;94635;-75
2024/03/06 16:33:51;;;;;;;;;;;;;;;;;;4935252;28;92509;-74
2024/03/06 16:36:17;;;;;;;;;;;;;;;;;;4936776;28;92609;-73